ELY5155 LLBG-LBWN
Flight info
| Callsign | ELY5155 |
|---|---|
| Flight time | 2h 0m |
| Altitude | 32000 |
| Route | SUVAS N128 TEZAK L324 SAFTA DCT TOMBI UM855 AYT UQ23 OSVEL UL619 MAKOL DCT IVGOT |
| Aircraft | B738/M-SDE2E3FGHIRWXY/LB1 |
Departure
| Time | 2026-05-05 17:58 |
|---|---|
| Airport | Ben Gurion International Airport (LLBG) |
Arrival
| Time | 2026-05-05 19:59 |
|---|---|
| Airport | Varna Airport (LBWN) |
| Time | Latitude | Longitude | Altitude | Speed | Heading |
|---|---|---|---|---|---|
| 2026-05-05 17:40 | 32.00260 | 34.87408 | 115 ft | 0 kts | 275° |
| 2026-05-05 17:48 | 32.00259 | 34.87435 | 118 ft | 4 kts | 274° |
| 2026-05-05 17:49 | 32.00256 | 34.87467 | 114 ft | 4 kts | 276° |
| 2026-05-05 17:49 | 32.00254 | 34.87492 | 115 ft | 4 kts | 280° |
| 2026-05-05 17:49 | 32.00246 | 34.87521 | 119 ft | 4 kts | 303° |
| 2026-05-05 17:49 | 32.00234 | 34.87542 | 116 ft | 4 kts | 304° |
| 2026-05-05 17:50 | 32.00219 | 34.87569 | 117 ft | 4 kts | 302° |
| 2026-05-05 17:50 | 32.00205 | 34.87594 | 118 ft | 4 kts | 294° |
| 2026-05-05 17:50 | 32.00201 | 34.87623 | 119 ft | 4 kts | 252° |
| 2026-05-05 17:50 | 32.00214 | 34.87649 | 117 ft | 4 kts | 222° |
| 2026-05-05 17:51 | 32.00235 | 34.87666 | 118 ft | 4 kts | 212° |
| 2026-05-05 17:51 | 32.00257 | 34.87683 | 118 ft | 4 kts | 212° |
| 2026-05-05 17:51 | 32.00280 | 34.87699 | 119 ft | 3 kts | 211° |
| 2026-05-05 17:51 | 32.00282 | 34.87701 | 117 ft | 1 kts | 211° |
| 2026-05-05 17:53 | 32.00281 | 34.87700 | 119 ft | 1 kts | 211° |
| 2026-05-05 17:53 | 32.00238 | 34.87676 | 115 ft | 14 kts | 189° |
| 2026-05-05 17:53 | 32.00223 | 34.87756 | 116 ft | 15 kts | 31° |
| 2026-05-05 17:54 | 32.00312 | 34.87821 | 117 ft | 15 kts | 31° |
| 2026-05-05 17:54 | 32.00399 | 34.87883 | 117 ft | 14 kts | 31° |
| 2026-05-05 17:54 | 32.00481 | 34.87944 | 115 ft | 14 kts | 23° |
| 2026-05-05 17:54 | 32.00576 | 34.87928 | 119 ft | 16 kts | 358° |
| 2026-05-05 17:55 | 32.00691 | 34.87995 | 116 ft | 22 kts | 33° |
| 2026-05-05 17:55 | 32.00779 | 34.88060 | 117 ft | 24 kts | 31° |
| 2026-05-05 17:55 | 32.00996 | 34.88211 | 119 ft | 30 kts | 32° |
| 2026-05-05 17:55 | 32.01112 | 34.88297 | 118 ft | 27 kts | 32° |
| 2026-05-05 17:56 | 32.01274 | 34.88422 | 117 ft | 27 kts | 39° |
| 2026-05-05 17:56 | 32.01398 | 34.88581 | 117 ft | 26 kts | 51° |
| 2026-05-05 17:56 | 32.01477 | 34.88761 | 115 ft | 24 kts | 70° |
| 2026-05-05 17:56 | 32.01511 | 34.88946 | 115 ft | 23 kts | 79° |
| 2026-05-05 17:57 | 32.01555 | 34.89117 | 118 ft | 22 kts | 33° |
| 2026-05-05 17:57 | 32.01704 | 34.89129 | 117 ft | 21 kts | 337° |
| 2026-05-05 17:57 | 32.01728 | 34.88970 | 119 ft | 25 kts | 260° |
| 2026-05-05 17:57 | 32.01655 | 34.88495 | 121 ft | 93 kts | 259° |
| 2026-05-05 17:58 | 32.01505 | 34.87512 | 119 ft | 152 kts | 260° |
| 2026-05-05 17:58 | 32.01306 | 34.86142 | 413 ft | 177 kts | 260° |
| 2026-05-05 17:58 | 32.01079 | 34.84760 | 1356 ft | 169 kts | 258° |
| 2026-05-05 17:58 | 32.00788 | 34.83409 | 2073 ft | 174 kts | 256° |
| 2026-05-05 17:59 | 32.00459 | 34.81928 | 2478 ft | 198 kts | 256° |
| 2026-05-05 17:59 | 32.00114 | 34.80332 | 3004 ft | 207 kts | 257° |
| 2026-05-05 17:59 | 31.99755 | 34.78587 | 3243 ft | 228 kts | 257° |
| 2026-05-05 17:59 | 31.99370 | 34.76735 | 3768 ft | 236 kts | 257° |
| 2026-05-05 18:00 | 31.99678 | 34.72372 | 4843 ft | 262 kts | 285° |
| 2026-05-05 18:00 | 32.00178 | 34.70313 | 5723 ft | 262 kts | 285° |
| 2026-05-05 18:00 | 32.00679 | 34.68244 | 6555 ft | 265 kts | 285° |
| 2026-05-05 18:01 | 32.01186 | 34.66141 | 7345 ft | 268 kts | 285° |
| 2026-05-05 18:01 | 32.01697 | 34.64012 | 8129 ft | 271 kts | 285° |
| 2026-05-05 18:01 | 32.02211 | 34.61869 | 8870 ft | 275 kts | 285° |
| 2026-05-05 18:01 | 32.02732 | 34.59677 | 9598 ft | 279 kts | 285° |
| 2026-05-05 18:02 | 32.03260 | 34.57464 | 10334 ft | 283 kts | 285° |
| 2026-05-05 18:02 | 32.03809 | 34.55157 | 10591 ft | 304 kts | 285° |
| 2026-05-05 18:02 | 32.04399 | 34.52668 | 10784 ft | 327 kts | 285° |
| 2026-05-05 18:02 | 32.05026 | 34.50022 | 10951 ft | 347 kts | 285° |
| 2026-05-05 18:03 | 32.05692 | 34.47202 | 11158 ft | 365 kts | 285° |
| 2026-05-05 18:03 | 32.06382 | 34.44284 | 11650 ft | 372 kts | 285° |
| 2026-05-05 18:03 | 32.07080 | 34.41328 | 12309 ft | 375 kts | 285° |
| 2026-05-05 18:03 | 32.07778 | 34.38367 | 12960 ft | 377 kts | 285° |
| 2026-05-05 18:04 | 32.08481 | 34.35376 | 13552 ft | 380 kts | 285° |
| 2026-05-05 18:04 | 32.09189 | 34.32361 | 14121 ft | 383 kts | 285° |
| 2026-05-05 18:04 | 32.09904 | 34.29319 | 14685 ft | 386 kts | 285° |
| 2026-05-05 18:04 | 32.10622 | 34.26254 | 15234 ft | 389 kts | 285° |
| 2026-05-05 18:05 | 32.11343 | 34.23170 | 15776 ft | 392 kts | 285° |
| 2026-05-05 18:05 | 32.12072 | 34.20051 | 16313 ft | 395 kts | 285° |
| 2026-05-05 18:05 | 32.12803 | 34.16920 | 16832 ft | 398 kts | 285° |
| 2026-05-05 18:05 | 32.13529 | 34.13806 | 17314 ft | 400 kts | 285° |
| 2026-05-05 18:06 | 32.14269 | 34.10629 | 17780 ft | 404 kts | 285° |
| 2026-05-05 18:06 | 32.14773 | 34.08464 | 18098 ft | 406 kts | 285° |
| 2026-05-05 18:06 | 32.15766 | 34.04195 | 18709 ft | 409 kts | 285° |
| 2026-05-05 18:06 | 32.16576 | 34.00963 | 19140 ft | 412 kts | 290° |
| 2026-05-05 18:07 | 32.17765 | 33.97878 | 19557 ft | 416 kts | 298° |
| 2026-05-05 18:07 | 32.19364 | 33.95013 | 19993 ft | 419 kts | 304° |
| 2026-05-05 18:07 | 32.21072 | 33.92215 | 20420 ft | 422 kts | 304° |
| 2026-05-05 18:07 | 32.22803 | 33.89400 | 20828 ft | 424 kts | 304° |
| 2026-05-05 18:08 | 32.24539 | 33.86567 | 21226 ft | 427 kts | 304° |
| 2026-05-05 18:08 | 32.26281 | 33.83709 | 21606 ft | 429 kts | 304° |
| 2026-05-05 18:08 | 32.28022 | 33.80837 | 21994 ft | 431 kts | 304° |
| 2026-05-05 18:08 | 32.29767 | 33.77944 | 22355 ft | 433 kts | 304° |
| 2026-05-05 18:09 | 32.31518 | 33.75034 | 22690 ft | 436 kts | 304° |
| 2026-05-05 18:09 | 32.33281 | 33.72099 | 23034 ft | 438 kts | 304° |
| 2026-05-05 18:09 | 32.35045 | 33.69157 | 23352 ft | 440 kts | 304° |
| 2026-05-05 18:09 | 32.36820 | 33.66194 | 23671 ft | 442 kts | 304° |
| 2026-05-05 18:10 | 32.38603 | 33.63214 | 24004 ft | 444 kts | 304° |
| 2026-05-05 18:10 | 32.40388 | 33.60229 | 24303 ft | 446 kts | 304° |
| 2026-05-05 18:10 | 32.42176 | 33.57235 | 24631 ft | 447 kts | 304° |
| 2026-05-05 18:10 | 32.43973 | 33.54227 | 24973 ft | 448 kts | 304° |
| 2026-05-05 18:11 | 32.45772 | 33.51212 | 25301 ft | 449 kts | 303° |
| 2026-05-05 18:11 | 32.47576 | 33.48188 | 25612 ft | 450 kts | 303° |
| 2026-05-05 18:11 | 32.49384 | 33.45154 | 25923 ft | 451 kts | 303° |
| 2026-05-05 18:11 | 32.51193 | 33.42116 | 26185 ft | 453 kts | 303° |
| 2026-05-05 18:12 | 32.53010 | 33.39060 | 26439 ft | 454 kts | 303° |
| 2026-05-05 18:12 | 32.54830 | 33.35997 | 26698 ft | 456 kts | 303° |
| 2026-05-05 18:12 | 32.56657 | 33.32923 | 27003 ft | 456 kts | 303° |
| 2026-05-05 18:12 | 32.58479 | 33.29854 | 27394 ft | 454 kts | 303° |
| 2026-05-05 18:13 | 32.60288 | 33.26800 | 27806 ft | 451 kts | 303° |
| 2026-05-05 18:13 | 32.62087 | 33.23766 | 28190 ft | 449 kts | 303° |
| 2026-05-05 18:13 | 32.63860 | 33.20772 | 28532 ft | 448 kts | 303° |
| 2026-05-05 18:13 | 32.65647 | 33.17750 | 28864 ft | 448 kts | 303° |
| 2026-05-05 18:14 | 32.67434 | 33.14727 | 29217 ft | 446 kts | 303° |
| 2026-05-05 18:14 | 32.69210 | 33.11719 | 29590 ft | 444 kts | 303° |
| 2026-05-05 18:14 | 32.70980 | 33.08721 | 29943 ft | 443 kts | 303° |
| 2026-05-05 18:14 | 32.72749 | 33.05722 | 30241 ft | 442 kts | 302° |
| 2026-05-05 18:15 | 32.74509 | 33.02735 | 30564 ft | 441 kts | 302° |
| 2026-05-05 18:15 | 32.76265 | 32.99750 | 30871 ft | 441 kts | 302° |
| 2026-05-05 18:15 | 32.78019 | 32.96767 | 31141 ft | 441 kts | 302° |
| 2026-05-05 18:15 | 32.79776 | 32.93777 | 31427 ft | 440 kts | 302° |
| 2026-05-05 18:16 | 32.81527 | 32.90796 | 31735 ft | 439 kts | 302° |
| 2026-05-05 18:16 | 32.83270 | 32.87825 | 32005 ft | 439 kts | 302° |
| 2026-05-05 18:16 | 32.85017 | 32.84846 | 32273 ft | 438 kts | 302° |
| 2026-05-05 18:16 | 32.86756 | 32.81878 | 32535 ft | 437 kts | 302° |
| 2026-05-05 18:17 | 32.88495 | 32.78911 | 32796 ft | 437 kts | 302° |
| 2026-05-05 18:17 | 32.90228 | 32.75947 | 33033 ft | 437 kts | 302° |
| 2026-05-05 18:17 | 32.91963 | 32.72976 | 33276 ft | 436 kts | 302° |
| 2026-05-05 18:17 | 32.93692 | 32.70016 | 33538 ft | 435 kts | 302° |
| 2026-05-05 18:18 | 32.95418 | 32.67058 | 33760 ft | 435 kts | 302° |
| 2026-05-05 18:18 | 32.97142 | 32.64101 | 34000 ft | 435 kts | 302° |
| 2026-05-05 18:18 | 32.98865 | 32.61144 | 34234 ft | 434 kts | 302° |
| 2026-05-05 18:18 | 33.00581 | 32.58195 | 34448 ft | 434 kts | 302° |
| 2026-05-05 18:19 | 33.02300 | 32.55239 | 34637 ft | 434 kts | 302° |
| 2026-05-05 18:19 | 33.04021 | 32.52278 | 34799 ft | 435 kts | 302° |
| 2026-05-05 18:19 | 33.05162 | 32.50314 | 34936 ft | 435 kts | 302° |
| 2026-05-05 18:19 | 33.07460 | 32.46354 | 35244 ft | 433 kts | 302° |
| 2026-05-05 18:20 | 33.09173 | 32.43398 | 35444 ft | 433 kts | 302° |
| 2026-05-05 18:20 | 33.10308 | 32.41439 | 35552 ft | 434 kts | 302° |
| 2026-05-05 18:20 | 33.12024 | 32.38475 | 35712 ft | 434 kts | 302° |
| 2026-05-05 18:20 | 33.13737 | 32.35517 | 35865 ft | 434 kts | 302° |
| 2026-05-05 18:21 | 33.15455 | 32.32546 | 36020 ft | 435 kts | 302° |
| 2026-05-05 18:21 | 33.18898 | 32.26582 | 36034 ft | 436 kts | 302° |
| 2026-05-05 18:22 | 33.22327 | 32.20634 | 36033 ft | 433 kts | 302° |
| 2026-05-05 18:22 | 33.25734 | 32.14716 | 36049 ft | 431 kts | 302° |
| 2026-05-05 18:23 | 33.29123 | 32.08821 | 36042 ft | 430 kts | 302° |
| 2026-05-05 18:23 | 33.32479 | 32.02970 | 36042 ft | 429 kts | 302° |
| 2026-05-05 18:24 | 33.35851 | 31.97081 | 36047 ft | 430 kts | 302° |
| 2026-05-05 18:24 | 33.39229 | 31.91169 | 36043 ft | 431 kts | 302° |
| 2026-05-05 18:25 | 33.42620 | 31.85234 | 36054 ft | 433 kts | 302° |
| 2026-05-05 18:25 | 33.46549 | 31.79768 | 36060 ft | 439 kts | 321° |
| 2026-05-05 18:26 | 33.51998 | 31.76402 | 36048 ft | 448 kts | 340° |
| 2026-05-05 18:26 | 33.58002 | 31.74314 | 36041 ft | 450 kts | 341° |
| 2026-05-05 18:27 | 33.64021 | 31.72230 | 36033 ft | 450 kts | 340° |
| 2026-05-05 18:27 | 33.70027 | 31.70074 | 36036 ft | 451 kts | 340° |
| 2026-05-05 18:28 | 33.79046 | 31.66802 | 36035 ft | 452 kts | 340° |
| 2026-05-05 18:28 | 33.85056 | 31.64615 | 36034 ft | 451 kts | 340° |
| 2026-05-05 18:29 | 33.91062 | 31.62421 | 36041 ft | 451 kts | 340° |
| 2026-05-05 18:29 | 33.97056 | 31.60227 | 36030 ft | 450 kts | 340° |
| 2026-05-05 18:30 | 34.03046 | 31.58031 | 36026 ft | 450 kts | 340° |
| 2026-05-05 18:30 | 34.09028 | 31.55836 | 36030 ft | 449 kts | 340° |
| 2026-05-05 18:31 | 34.15000 | 31.53642 | 36025 ft | 448 kts | 340° |
| 2026-05-05 18:31 | 34.20917 | 31.51464 | 36026 ft | 447 kts | 340° |
| 2026-05-05 18:32 | 34.26865 | 31.49273 | 36029 ft | 447 kts | 340° |
| 2026-05-05 18:32 | 34.32803 | 31.47082 | 36026 ft | 446 kts | 340° |
| 2026-05-05 18:33 | 34.38736 | 31.44888 | 36028 ft | 446 kts | 340° |
| 2026-05-05 18:33 | 34.44667 | 31.42691 | 36027 ft | 445 kts | 340° |
| 2026-05-05 18:34 | 34.50590 | 31.40492 | 36027 ft | 445 kts | 340° |
| 2026-05-05 18:34 | 34.56523 | 31.38292 | 36029 ft | 446 kts | 340° |
| 2026-05-05 18:35 | 34.62454 | 31.36087 | 36027 ft | 446 kts | 340° |
| 2026-05-05 18:35 | 34.68393 | 31.33873 | 36018 ft | 446 kts | 340° |
| 2026-05-05 18:36 | 34.74328 | 31.31659 | 36019 ft | 446 kts | 340° |
| 2026-05-05 18:36 | 34.80265 | 31.29443 | 36023 ft | 447 kts | 340° |
| 2026-05-05 18:37 | 34.86212 | 31.27219 | 36018 ft | 447 kts | 340° |
| 2026-05-05 18:37 | 34.92155 | 31.24992 | 36016 ft | 447 kts | 340° |
| 2026-05-05 18:38 | 34.98093 | 31.22763 | 36020 ft | 447 kts | 340° |
| 2026-05-05 18:38 | 35.04032 | 31.20531 | 36017 ft | 446 kts | 340° |
| 2026-05-05 18:39 | 35.09929 | 31.18312 | 36019 ft | 446 kts | 340° |
| 2026-05-05 18:39 | 35.15861 | 31.16077 | 36016 ft | 446 kts | 340° |
| 2026-05-05 18:40 | 35.21789 | 31.13840 | 36020 ft | 446 kts | 340° |
| 2026-05-05 18:40 | 35.27712 | 31.11600 | 36015 ft | 446 kts | 340° |
| 2026-05-05 18:41 | 35.33638 | 31.09355 | 36018 ft | 446 kts | 340° |
| 2026-05-05 18:41 | 35.39561 | 31.07108 | 36019 ft | 445 kts | 340° |
| 2026-05-05 18:42 | 35.45481 | 31.04859 | 36018 ft | 445 kts | 340° |
| 2026-05-05 18:42 | 35.51387 | 31.02612 | 36019 ft | 444 kts | 340° |
| 2026-05-05 18:43 | 35.57297 | 31.00361 | 36019 ft | 445 kts | 340° |
| 2026-05-05 18:43 | 35.63202 | 30.98107 | 36020 ft | 444 kts | 340° |
| 2026-05-05 18:44 | 35.69109 | 30.95848 | 36011 ft | 444 kts | 340° |
| 2026-05-05 18:44 | 35.75015 | 30.93586 | 36010 ft | 445 kts | 340° |
| 2026-05-05 18:45 | 35.80921 | 30.91322 | 36008 ft | 445 kts | 340° |
| 2026-05-05 18:45 | 35.86828 | 30.89055 | 36011 ft | 445 kts | 340° |
| 2026-05-05 18:46 | 35.92735 | 30.86783 | 36010 ft | 445 kts | 340° |
| 2026-05-05 18:46 | 35.98644 | 30.84506 | 36009 ft | 445 kts | 340° |
| 2026-05-05 18:47 | 36.04608 | 30.82456 | 36001 ft | 447 kts | 349° |
| 2026-05-05 18:47 | 36.10830 | 30.82062 | 36008 ft | 449 kts | 356° |
| 2026-05-05 18:48 | 36.17039 | 30.81955 | 36011 ft | 449 kts | 356° |
| 2026-05-05 18:48 | 36.23284 | 30.81791 | 36008 ft | 449 kts | 356° |
| 2026-05-05 18:49 | 36.29527 | 30.81591 | 36002 ft | 449 kts | 356° |
| 2026-05-05 18:49 | 36.35771 | 30.81387 | 36002 ft | 449 kts | 356° |
| 2026-05-05 18:50 | 36.42013 | 30.81186 | 36001 ft | 449 kts | 356° |
| 2026-05-05 18:50 | 36.48252 | 30.80970 | 36001 ft | 449 kts | 356° |
| 2026-05-05 18:51 | 36.54493 | 30.80745 | 35998 ft | 448 kts | 356° |
| 2026-05-05 18:51 | 36.60729 | 30.80520 | 35999 ft | 448 kts | 356° |
| 2026-05-05 18:52 | 36.66966 | 30.80298 | 36000 ft | 449 kts | 356° |
| 2026-05-05 18:52 | 36.73203 | 30.80075 | 36000 ft | 448 kts | 356° |
| 2026-05-05 18:53 | 36.79443 | 30.79853 | 35998 ft | 449 kts | 356° |
| 2026-05-05 18:53 | 36.85684 | 30.79630 | 35995 ft | 449 kts | 356° |
| 2026-05-05 18:54 | 36.91928 | 30.79422 | 35992 ft | 449 kts | 358° |
| 2026-05-05 18:54 | 36.98174 | 30.80059 | 35992 ft | 451 kts | 4° |
| 2026-05-05 18:55 | 37.04410 | 30.81041 | 35993 ft | 451 kts | 5° |
| 2026-05-05 18:55 | 37.10635 | 30.82000 | 35999 ft | 451 kts | 4° |
| 2026-05-05 18:56 | 37.16860 | 30.82908 | 35998 ft | 450 kts | 4° |
| 2026-05-05 18:56 | 37.23088 | 30.83794 | 36007 ft | 451 kts | 4° |
| 2026-05-05 18:57 | 37.29320 | 30.84678 | 36007 ft | 450 kts | 4° |
| 2026-05-05 18:57 | 37.35509 | 30.85560 | 36017 ft | 450 kts | 4° |
| 2026-05-05 18:58 | 37.41738 | 30.86450 | 36025 ft | 450 kts | 4° |
| 2026-05-05 18:58 | 37.47959 | 30.87341 | 36027 ft | 450 kts | 4° |
| 2026-05-05 18:59 | 37.54178 | 30.88233 | 36046 ft | 450 kts | 4° |
| 2026-05-05 18:59 | 37.60404 | 30.89126 | 36039 ft | 450 kts | 4° |
| 2026-05-05 19:00 | 37.66629 | 30.90022 | 36052 ft | 450 kts | 4° |
| 2026-05-05 19:00 | 37.72861 | 30.90920 | 36057 ft | 451 kts | 4° |
| 2026-05-05 19:01 | 37.79089 | 30.91820 | 36060 ft | 450 kts | 4° |
| 2026-05-05 19:01 | 37.85319 | 30.92721 | 36058 ft | 451 kts | 4° |
| 2026-05-05 19:02 | 37.91549 | 30.93622 | 36065 ft | 450 kts | 4° |
| 2026-05-05 19:02 | 37.97781 | 30.94526 | 36069 ft | 451 kts | 4° |
| 2026-05-05 19:03 | 38.04013 | 30.95432 | 36076 ft | 450 kts | 5° |
| 2026-05-05 19:03 | 38.10239 | 30.96338 | 36071 ft | 450 kts | 5° |
| 2026-05-05 19:04 | 38.16421 | 30.97240 | 36071 ft | 450 kts | 5° |
| 2026-05-05 19:04 | 38.22640 | 30.98149 | 36076 ft | 450 kts | 5° |
| 2026-05-05 19:05 | 38.28860 | 30.99059 | 36073 ft | 449 kts | 5° |
| 2026-05-05 19:05 | 38.35074 | 30.99971 | 36065 ft | 449 kts | 5° |
| 2026-05-05 19:06 | 38.41283 | 31.00882 | 36068 ft | 449 kts | 5° |
| 2026-05-05 19:06 | 38.47498 | 31.01297 | 36069 ft | 446 kts | 353° |
| 2026-05-05 19:07 | 38.52517 | 30.99976 | 36067 ft | 443 kts | 339° |
| 2026-05-05 19:07 | 38.59246 | 30.96712 | 36064 ft | 443 kts | 338° |
| 2026-05-05 19:08 | 38.65007 | 30.93869 | 36059 ft | 443 kts | 338° |
| 2026-05-05 19:08 | 38.70770 | 30.91065 | 36066 ft | 443 kts | 338° |
| 2026-05-05 19:09 | 38.76548 | 30.88273 | 36066 ft | 444 kts | 338° |
| 2026-05-05 19:09 | 38.81348 | 30.85955 | 36061 ft | 444 kts | 338° |
| 2026-05-05 19:10 | 38.87130 | 30.83161 | 36063 ft | 444 kts | 338° |
| 2026-05-05 19:10 | 38.92912 | 30.80359 | 36060 ft | 444 kts | 338° |
| 2026-05-05 19:11 | 38.98696 | 30.77551 | 36066 ft | 444 kts | 338° |
| 2026-05-05 19:11 | 39.04481 | 30.74737 | 36065 ft | 445 kts | 338° |
| 2026-05-05 19:12 | 39.10267 | 30.71918 | 36062 ft | 445 kts | 338° |
| 2026-05-05 19:12 | 39.16062 | 30.69090 | 36069 ft | 445 kts | 338° |
| 2026-05-05 19:13 | 39.21854 | 30.66259 | 36071 ft | 445 kts | 338° |
| 2026-05-05 19:13 | 39.27645 | 30.63423 | 36074 ft | 445 kts | 338° |
| 2026-05-05 19:14 | 39.33434 | 30.60581 | 36073 ft | 445 kts | 338° |
| 2026-05-05 19:14 | 39.39222 | 30.57736 | 36071 ft | 445 kts | 339° |
| 2026-05-05 19:15 | 39.44965 | 30.54908 | 36072 ft | 444 kts | 338° |
| 2026-05-05 19:15 | 39.50742 | 30.52057 | 36078 ft | 444 kts | 339° |
| 2026-05-05 19:16 | 39.56503 | 30.49146 | 36077 ft | 445 kts | 336° |
| 2026-05-05 19:16 | 39.62157 | 30.45888 | 36074 ft | 445 kts | 335° |
| 2026-05-05 19:17 | 39.67782 | 30.42543 | 36071 ft | 445 kts | 335° |
| 2026-05-05 19:17 | 39.73412 | 30.39218 | 36074 ft | 445 kts | 335° |
| 2026-05-05 19:18 | 39.79051 | 30.35913 | 36072 ft | 445 kts | 335° |
| 2026-05-05 19:18 | 39.84694 | 30.32610 | 36074 ft | 445 kts | 335° |
| 2026-05-05 19:19 | 39.90296 | 30.29325 | 36076 ft | 445 kts | 335° |
| 2026-05-05 19:19 | 39.95938 | 30.26010 | 36071 ft | 445 kts | 335° |
| 2026-05-05 19:20 | 40.01578 | 30.22690 | 36073 ft | 445 kts | 335° |
| 2026-05-05 19:20 | 40.07227 | 30.19359 | 36075 ft | 445 kts | 335° |
| 2026-05-05 19:21 | 40.12872 | 30.16024 | 36074 ft | 445 kts | 335° |
| 2026-05-05 19:21 | 40.18517 | 30.12684 | 36074 ft | 445 kts | 335° |
| 2026-05-05 19:22 | 40.24154 | 30.09341 | 36078 ft | 445 kts | 335° |
| 2026-05-05 19:22 | 40.29793 | 30.05990 | 36074 ft | 445 kts | 335° |
| 2026-05-05 19:23 | 40.35430 | 30.02634 | 36073 ft | 445 kts | 335° |
| 2026-05-05 19:23 | 40.41065 | 29.99274 | 36074 ft | 445 kts | 335° |
| 2026-05-05 19:24 | 40.46692 | 29.95916 | 36069 ft | 445 kts | 335° |
| 2026-05-05 19:24 | 40.52318 | 29.92547 | 36076 ft | 444 kts | 335° |
| 2026-05-05 19:25 | 40.57907 | 29.89195 | 36075 ft | 444 kts | 335° |
| 2026-05-05 19:25 | 40.63535 | 29.85814 | 36076 ft | 445 kts | 335° |
| 2026-05-05 19:26 | 40.69163 | 29.82427 | 36072 ft | 445 kts | 335° |
| 2026-05-05 19:26 | 40.74797 | 29.79032 | 36070 ft | 445 kts | 335° |
| 2026-05-05 19:27 | 40.80422 | 29.75635 | 36076 ft | 445 kts | 335° |
| 2026-05-05 19:27 | 40.86051 | 29.72227 | 36073 ft | 445 kts | 335° |
| 2026-05-05 19:28 | 40.91673 | 29.68817 | 36076 ft | 445 kts | 335° |
| 2026-05-05 19:28 | 40.97254 | 29.65426 | 36071 ft | 446 kts | 335° |
| 2026-05-05 19:29 | 41.02893 | 29.61993 | 36075 ft | 446 kts | 335° |
| 2026-05-05 19:29 | 41.08530 | 29.58556 | 36074 ft | 446 kts | 335° |
| 2026-05-05 19:30 | 41.14166 | 29.55113 | 36073 ft | 446 kts | 335° |
| 2026-05-05 19:30 | 41.19809 | 29.51686 | 36074 ft | 446 kts | 338° |
| 2026-05-05 19:31 | 41.25718 | 29.49182 | 36073 ft | 446 kts | 345° |
| 2026-05-05 19:31 | 41.31702 | 29.47035 | 36075 ft | 445 kts | 345° |
| 2026-05-05 19:32 | 41.37678 | 29.44850 | 36072 ft | 446 kts | 345° |
| 2026-05-05 19:32 | 41.43645 | 29.42604 | 36076 ft | 446 kts | 344° |
| 2026-05-05 19:33 | 41.49618 | 29.40326 | 36075 ft | 446 kts | 344° |
| 2026-05-05 19:33 | 41.55585 | 29.38046 | 36073 ft | 446 kts | 344° |
| 2026-05-05 19:34 | 41.61548 | 29.35764 | 36075 ft | 446 kts | 344° |
| 2026-05-05 19:35 | 41.70494 | 29.32334 | 36074 ft | 446 kts | 344° |
| 2026-05-05 19:35 | 41.73478 | 29.31188 | 35837 ft | 450 kts | 344° |
| 2026-05-05 19:35 | 41.76507 | 29.30023 | 35278 ft | 452 kts | 344° |
| 2026-05-05 19:35 | 41.79526 | 29.28859 | 34616 ft | 451 kts | 344° |
| 2026-05-05 19:36 | 41.82537 | 29.27700 | 33963 ft | 450 kts | 344° |
| 2026-05-05 19:36 | 41.85543 | 29.26542 | 33279 ft | 449 kts | 344° |
| 2026-05-05 19:36 | 41.88546 | 29.25382 | 32576 ft | 450 kts | 344° |
| 2026-05-05 19:36 | 41.91517 | 29.24235 | 31861 ft | 450 kts | 344° |
| 2026-05-05 19:37 | 41.94528 | 29.23070 | 31113 ft | 451 kts | 344° |
| 2026-05-05 19:37 | 41.97542 | 29.21902 | 30346 ft | 451 kts | 345° |
| 2026-05-05 19:37 | 42.00566 | 29.20730 | 29552 ft | 452 kts | 345° |
| 2026-05-05 19:37 | 42.03588 | 29.19557 | 28839 ft | 451 kts | 345° |
| 2026-05-05 19:38 | 42.06585 | 29.18393 | 28264 ft | 446 kts | 345° |
| 2026-05-05 19:38 | 42.09549 | 29.17241 | 27678 ft | 442 kts | 345° |
| 2026-05-05 19:38 | 42.12488 | 29.16097 | 27092 ft | 437 kts | 345° |
| 2026-05-05 19:38 | 42.15397 | 29.14965 | 26522 ft | 433 kts | 345° |
| 2026-05-05 19:39 | 42.18249 | 29.13703 | 25918 ft | 430 kts | 338° |
| 2026-05-05 19:39 | 42.20973 | 29.12046 | 25297 ft | 428 kts | 335° |
| 2026-05-05 19:39 | 42.23644 | 29.10300 | 24723 ft | 425 kts | 335° |
| 2026-05-05 19:39 | 42.26286 | 29.08547 | 24154 ft | 422 kts | 335° |
| 2026-05-05 19:40 | 42.28907 | 29.06812 | 23588 ft | 418 kts | 335° |
| 2026-05-05 19:40 | 42.31515 | 29.05101 | 23042 ft | 414 kts | 335° |
| 2026-05-05 19:40 | 42.34100 | 29.03418 | 22481 ft | 411 kts | 335° |
| 2026-05-05 19:40 | 42.36664 | 29.01758 | 21937 ft | 407 kts | 335° |
| 2026-05-05 19:41 | 42.39207 | 29.00117 | 21395 ft | 403 kts | 335° |
| 2026-05-05 19:41 | 42.41736 | 28.98486 | 20856 ft | 400 kts | 335° |
| 2026-05-05 19:41 | 42.44238 | 28.96874 | 20320 ft | 397 kts | 335° |
| 2026-05-05 19:41 | 42.46719 | 28.95273 | 19788 ft | 394 kts | 335° |
| 2026-05-05 19:42 | 42.49178 | 28.93684 | 19264 ft | 391 kts | 335° |
| 2026-05-05 19:42 | 42.51621 | 28.92104 | 18731 ft | 387 kts | 335° |
| 2026-05-05 19:42 | 42.54042 | 28.90536 | 18210 ft | 384 kts | 335° |
| 2026-05-05 19:42 | 42.56414 | 28.88999 | 17695 ft | 381 kts | 335° |
| 2026-05-05 19:43 | 42.58826 | 28.87435 | 17172 ft | 378 kts | 335° |
| 2026-05-05 19:43 | 42.61159 | 28.85921 | 16671 ft | 375 kts | 335° |
| 2026-05-05 19:43 | 42.63507 | 28.84397 | 16155 ft | 372 kts | 335° |
| 2026-05-05 19:43 | 42.65836 | 28.82883 | 15648 ft | 370 kts | 335° |
| 2026-05-05 19:44 | 42.68149 | 28.81378 | 15137 ft | 367 kts | 335° |
| 2026-05-05 19:44 | 42.70445 | 28.79883 | 14644 ft | 365 kts | 335° |
| 2026-05-05 19:44 | 42.72727 | 28.78396 | 14138 ft | 362 kts | 335° |
| 2026-05-05 19:44 | 42.74991 | 28.76920 | 13645 ft | 359 kts | 335° |
| 2026-05-05 19:45 | 42.77236 | 28.75453 | 13154 ft | 357 kts | 335° |
| 2026-05-05 19:45 | 42.79470 | 28.73993 | 12661 ft | 355 kts | 335° |
| 2026-05-05 19:45 | 42.81683 | 28.72546 | 12176 ft | 352 kts | 335° |
| 2026-05-05 19:45 | 42.83884 | 28.71107 | 11686 ft | 350 kts | 335° |
| 2026-05-05 19:46 | 42.86067 | 28.69677 | 11194 ft | 347 kts | 335° |
| 2026-05-05 19:46 | 42.88216 | 28.68270 | 11014 ft | 336 kts | 335° |
| 2026-05-05 19:46 | 42.90287 | 28.66911 | 10857 ft | 325 kts | 335° |
| 2026-05-05 19:46 | 42.92294 | 28.65593 | 10707 ft | 315 kts | 335° |
| 2026-05-05 19:47 | 42.94235 | 28.64318 | 10571 ft | 305 kts | 335° |
| 2026-05-05 19:47 | 42.96118 | 28.63080 | 10447 ft | 296 kts | 335° |
| 2026-05-05 19:47 | 42.97943 | 28.61880 | 10323 ft | 287 kts | 335° |
| 2026-05-05 19:47 | 42.99708 | 28.60718 | 10203 ft | 278 kts | 335° |
| 2026-05-05 19:48 | 43.01422 | 28.59590 | 10088 ft | 269 kts | 335° |
| 2026-05-05 19:48 | 43.03098 | 28.58485 | 9850 ft | 266 kts | 335° |
| 2026-05-05 19:48 | 43.04761 | 28.57391 | 9562 ft | 265 kts | 335° |
| 2026-05-05 19:48 | 43.06418 | 28.56299 | 9277 ft | 264 kts | 335° |
| 2026-05-05 19:49 | 43.08066 | 28.55210 | 8993 ft | 262 kts | 335° |
| 2026-05-05 19:49 | 43.09153 | 28.54492 | 8808 ft | 262 kts | 335° |
| 2026-05-05 19:49 | 43.11153 | 28.52648 | 8419 ft | 263 kts | 312° |
| 2026-05-05 19:49 | 43.12298 | 28.50714 | 8167 ft | 260 kts | 311° |
| 2026-05-05 19:50 | 43.13446 | 28.48806 | 7889 ft | 259 kts | 311° |
| 2026-05-05 19:50 | 43.14596 | 28.46910 | 7616 ft | 258 kts | 311° |
| 2026-05-05 19:50 | 43.15741 | 28.45029 | 7343 ft | 257 kts | 311° |
| 2026-05-05 19:50 | 43.16882 | 28.43155 | 7075 ft | 256 kts | 311° |
| 2026-05-05 19:51 | 43.17810 | 28.41093 | 6778 ft | 258 kts | 287° |
| 2026-05-05 19:51 | 43.18082 | 28.38674 | 6560 ft | 256 kts | 278° |
| 2026-05-05 19:51 | 43.18297 | 28.36252 | 6284 ft | 256 kts | 279° |
| 2026-05-05 19:51 | 43.18515 | 28.33863 | 6022 ft | 255 kts | 279° |
| 2026-05-05 19:52 | 43.18738 | 28.31428 | 5754 ft | 254 kts | 279° |
| 2026-05-05 19:52 | 43.18958 | 28.29063 | 5496 ft | 253 kts | 279° |
| 2026-05-05 19:52 | 43.19183 | 28.26648 | 5232 ft | 252 kts | 278° |
| 2026-05-05 19:52 | 43.19398 | 28.24307 | 4975 ft | 251 kts | 278° |
| 2026-05-05 19:53 | 43.19618 | 28.21945 | 4792 ft | 246 kts | 278° |
| 2026-05-05 19:53 | 43.19831 | 28.19662 | 4724 ft | 236 kts | 278° |
| 2026-05-05 19:53 | 43.20032 | 28.17500 | 4629 ft | 222 kts | 278° |
| 2026-05-05 19:53 | 43.20220 | 28.15467 | 4528 ft | 209 kts | 278° |
| 2026-05-05 19:54 | 43.20400 | 28.13528 | 4332 ft | 201 kts | 278° |
| 2026-05-05 19:54 | 43.20574 | 28.11642 | 4153 ft | 200 kts | 278° |
| 2026-05-05 19:54 | 43.20749 | 28.09746 | 3955 ft | 201 kts | 278° |
| 2026-05-05 19:54 | 43.20922 | 28.07864 | 3768 ft | 196 kts | 278° |
| 2026-05-05 19:55 | 43.21088 | 28.06049 | 3552 ft | 188 kts | 278° |
| 2026-05-05 19:55 | 43.21246 | 28.04302 | 3335 ft | 181 kts | 278° |
| 2026-05-05 19:55 | 43.21398 | 28.02624 | 3135 ft | 174 kts | 278° |
| 2026-05-05 19:55 | 43.21543 | 28.01030 | 3002 ft | 165 kts | 278° |
| 2026-05-05 19:56 | 43.21684 | 27.99450 | 2772 ft | 168 kts | 278° |
| 2026-05-05 19:56 | 43.21824 | 27.97877 | 2513 ft | 165 kts | 277° |
| 2026-05-05 19:56 | 43.21961 | 27.96330 | 2254 ft | 161 kts | 277° |
| 2026-05-05 19:56 | 43.22095 | 27.94822 | 2013 ft | 159 kts | 277° |
| 2026-05-05 19:57 | 43.22226 | 27.93342 | 1802 ft | 156 kts | 277° |
| 2026-05-05 19:57 | 43.22309 | 27.92363 | 1615 ft | 156 kts | 277° |
| 2026-05-05 19:57 | 43.22503 | 27.90386 | 1299 ft | 156 kts | 277° |
| 2026-05-05 19:57 | 43.22624 | 27.88907 | 1062 ft | 157 kts | 276° |
| 2026-05-05 19:58 | 43.22763 | 27.87424 | 820 ft | 156 kts | 277° |
| 2026-05-05 19:58 | 43.22891 | 27.85948 | 567 ft | 155 kts | 278° |
| 2026-05-05 19:58 | 43.23022 | 27.84500 | 346 ft | 151 kts | 276° |
| 2026-05-05 19:58 | 43.23145 | 27.83107 | 228 ft | 139 kts | 277° |
| 2026-05-05 19:59 | 43.23215 | 27.82309 | 222 ft | 109 kts | 277° |
| 2026-05-05 19:59 | 43.23268 | 27.81744 | 222 ft | 2 kts | 302° |
| 2026-05-05 19:59 | 43.23290 | 27.81731 | 224 ft | 6 kts | 332° |
| 2026-05-05 19:59 | 43.23339 | 27.81690 | 222 ft | 11 kts | 325° |
| 2026-05-05 20:00 | 43.23423 | 27.81629 | 222 ft | 16 kts | 352° |
| 2026-05-05 20:00 | 43.23513 | 27.81785 | 224 ft | 20 kts | 95° |
| 2026-05-05 20:00 | 43.23501 | 27.81923 | 221 ft | 23 kts | 97° |
| 2026-05-05 20:00 | 43.23481 | 27.82153 | 221 ft | 25 kts | 95° |
| 2026-05-05 20:01 | 43.23577 | 27.82317 | 222 ft | 23 kts | 69° |
| 2026-05-05 20:01 | 43.23573 | 27.82525 | 221 ft | 20 kts | 97° |
| 2026-05-05 20:01 | 43.23583 | 27.82620 | 221 ft | 6 kts | 25° |
| 2026-05-05 20:01 | 43.23609 | 27.82628 | 221 ft | 1 kts | 8° |
| 2026-05-05 20:02 | 43.23610 | 27.82628 | 221 ft | 0 kts | 8° |